sensor_id;sensor_type;location;lat;lon;timestamp;temperature;humidity
39983;DHT22;25670;44.782;10.356;2022-08-21T00:01:09;20.90;99.90
39983;DHT22;25670;44.782;10.356;2022-08-21T00:03:36;20.90;99.90
39983;DHT22;25670;44.782;10.356;2022-08-21T00:06:02;21.00;99.90
39983;DHT22;25670;44.782;10.356;2022-08-21T00:08:29;21.00;99.90
39983;DHT22;25670;44.782;10.356;2022-08-21T00:10:55;21.10;99.90
39983;DHT22;25670;44.782;10.356;2022-08-21T00:13:21;21.20;99.90
39983;DHT22;25670;44.782;10.356;2022-08-21T00:15:48;21.20;99.90
39983;DHT22;25670;44.782;10.356;2022-08-21T00:18:16;21.20;99.90
39983;DHT22;25670;44.782;10.356;2022-08-21T00:20:43;21.30;99.90
39983;DHT22;25670;44.782;10.356;2022-08-21T00:23:11;21.30;99.90
39983;DHT22;25670;44.782;10.356;2022-08-21T00:25:38;21.30;99.90
39983;DHT22;25670;44.782;10.356;2022-08-21T00:28:05;21.20;99.90
39983;DHT22;25670;44.782;10.356;2022-08-21T00:30:33;21.20;99.90
39983;DHT22;25670;44.782;10.356;2022-08-21T00:33:00;21.20;99.90
39983;DHT22;25670;44.782;10.356;2022-08-21T00:35:33;22.60;99.90
39983;DHT22;25670;44.782;10.356;2022-08-21T00:38:00;21.10;99.90
39983;DHT22;25670;44.782;10.356;2022-08-21T00:40:33;21.20;99.90
39983;DHT22;25670;44.782;10.356;2022-08-21T00:43:03;21.20;99.90
39983;DHT22;25670;44.782;10.356;2022-08-21T00:45:29;21.30;99.90
39983;DHT22;25670;44.782;10.356;2022-08-21T00:47:56;21.40;99.90
39983;DHT22;25670;44.782;10.356;2022-08-21T00:50:26;21.40;99.90
39983;DHT22;25670;44.782;10.356;2022-08-21T00:52:54;21.40;99.90
39983;DHT22;25670;44.782;10.356;2022-08-21T00:55:22;21.60;99.90
39983;DHT22;25670;44.782;10.356;2022-08-21T00:57:52;21.70;99.90
39983;DHT22;25670;44.782;10.356;2022-08-21T01:00:23;21.70;99.90
39983;DHT22;25670;44.782;10.356;2022-08-21T01:02:50;21.80;99.90
39983;DHT22;25670;44.782;10.356;2022-08-21T01:05:16;21.80;99.90
39983;DHT22;25670;44.782;10.356;2022-08-21T01:07:43;21.80;99.90
39983;DHT22;25670;44.782;10.356;2022-08-21T01:10:11;21.80;99.90
39983;DHT22;25670;44.782;10.356;2022-08-21T01:12:38;21.70;99.90
39983;DHT22;25670;44.782;10.356;2022-08-21T01:15:07;21.80;99.90
39983;DHT22;25670;44.782;10.356;2022-08-21T01:17:34;20.70;99.90
39983;DHT22;25670;44.782;10.356;2022-08-21T01:20:04;21.80;99.90
39983;DHT22;25670;44.782;10.356;2022-08-21T01:22:31;21.80;99.90
39983;DHT22;25670;44.782;10.356;2022-08-21T01:24:57;21.90;99.90
39983;DHT22;25670;44.782;10.356;2022-08-21T01:27:24;21.80;99.90
39983;DHT22;25670;44.782;10.356;2022-08-21T01:30:24;21.80;99.90
39983;DHT22;25670;44.782;10.356;2022-08-21T01:32:51;21.80;99.90
39983;DHT22;25670;44.782;10.356;2022-08-21T01:35:19;21.70;99.90
39983;DHT22;25670;44.782;10.356;2022-08-21T01:37:46;21.60;99.90
39983;DHT22;25670;44.782;10.356;2022-08-21T01:40:14;21.60;99.90
39983;DHT22;25670;44.782;10.356;2022-08-21T01:42:43;21.60;99.90
39983;DHT22;25670;44.782;10.356;2022-08-21T01:45:10;21.50;99.90
39983;DHT22;25670;44.782;10.356;2022-08-21T01:47:37;21.60;99.90
39983;DHT22;25670;44.782;10.356;2022-08-21T01:50:06;21.50;99.90
39983;DHT22;25670;44.782;10.356;2022-08-21T01:52:33;21.60;99.90
39983;DHT22;25670;44.782;10.356;2022-08-21T01:55:00;21.50;99.90
39983;DHT22;25670;44.782;10.356;2022-08-21T01:57:26;21.50;99.90
39983;DHT22;25670;44.782;10.356;2022-08-21T01:59:53;21.50;99.90
39983;DHT22;25670;44.782;10.356;2022-08-21T02:02:19;21.50;99.90
39983;DHT22;25670;44.782;10.356;2022-08-21T02:04:46;21.40;99.90
39983;DHT22;25670;44.782;10.356;2022-08-21T02:07:12;21.40;99.90
39983;DHT22;25670;44.782;10.356;2022-08-21T02:09:38;21.40;99.90
39983;DHT22;25670;44.782;10.356;2022-08-21T02:12:05;21.30;99.90
39983;DHT22;25670;44.782;10.356;2022-08-21T02:14:31;21.30;99.90
39983;DHT22;25670;44.782;10.356;2022-08-21T02:16:57;21.20;99.90
39983;DHT22;25670;44.782;10.356;2022-08-21T02:19:23;21.20;99.90
39983;DHT22;25670;44.782;10.356;2022-08-21T02:21:50;21.20;99.90
39983;DHT22;25670;44.782;10.356;2022-08-21T02:24:16;21.20;99.90
39983;DHT22;25670;44.782;10.356;2022-08-21T02:26:42;21.10;99.90
39983;DHT22;25670;44.782;10.356;2022-08-21T02:29:08;21.10;99.90
39983;DHT22;25670;44.782;10.356;2022-08-21T02:31:35;21.10;99.90
39983;DHT22;25670;44.782;10.356;2022-08-21T02:34:01;21.00;99.90
39983;DHT22;25670;44.782;10.356;2022-08-21T02:36:28;20.90;99.90
39983;DHT22;25670;44.782;10.356;2022-08-21T02:38:54;20.80;99.90
39983;DHT22;25670;44.782;10.356;2022-08-21T02:41:21;20.80;99.90
39983;DHT22;25670;44.782;10.356;2022-08-21T02:43:48;20.70;99.90
39983;DHT22;25670;44.782;10.356;2022-08-21T02:46:18;20.80;99.90
39983;DHT22;25670;44.782;10.356;2022-08-21T02:48:44;20.80;99.90
39983;DHT22;25670;44.782;10.356;2022-08-21T02:51:17;20.90;99.90
39983;DHT22;25670;44.782;10.356;2022-08-21T02:53:44;20.90;99.90
39983;DHT22;25670;44.782;10.356;2022-08-21T02:56:13;22.80;99.90
39983;DHT22;25670;44.782;10.356;2022-08-21T02:58:45;20.90;99.90
39983;DHT22;25670;44.782;10.356;2022-08-21T03:01:12;21.00;99.90
39983;DHT22;25670;44.782;10.356;2022-08-21T03:03:41;21.00;99.90
39983;DHT22;25670;44.782;10.356;2022-08-21T03:06:10;21.00;99.90
39983;DHT22;25670;44.782;10.356;2022-08-21T03:08:37;20.90;99.90
39983;DHT22;25670;44.782;10.356;2022-08-21T03:11:04;20.90;99.90
39983;DHT22;25670;44.782;10.356;2022-08-21T03:13:30;20.80;99.90
39983;DHT22;25670;44.782;10.356;2022-08-21T03:15:58;20.80;99.90
39983;DHT22;25670;44.782;10.356;2022-08-21T03:18:24;20.70;99.90
39983;DHT22;25670;44.782;10.356;2022-08-21T03:20:51;20.70;99.90
39983;DHT22;25670;44.782;10.356;2022-08-21T03:23:17;20.70;99.90
39983;DHT22;25670;44.782;10.356;2022-08-21T03:25:45;20.60;99.90
39983;DHT22;25670;44.782;10.356;2022-08-21T03:28:16;20.60;99.90
39983;DHT22;25670;44.782;10.356;2022-08-21T03:30:47;20.60;99.90
39983;DHT22;25670;44.782;10.356;2022-08-21T03:33:14;20.70;99.90
39983;DHT22;25670;44.782;10.356;2022-08-21T03:35:40;20.60;99.90
39983;DHT22;25670;44.782;10.356;2022-08-21T03:38:08;20.60;99.90
39983;DHT22;25670;44.782;10.356;2022-08-21T03:40:34;20.60;99.90
39983;DHT22;25670;44.782;10.356;2022-08-21T03:43:01;20.60;99.90
39983;DHT22;25670;44.782;10.356;2022-08-21T03:45:27;20.70;99.90
39983;DHT22;25670;44.782;10.356;2022-08-21T03:47:57;20.70;99.90
39983;DHT22;25670;44.782;10.356;2022-08-21T03:50:25;20.70;99.90
39983;DHT22;25670;44.782;10.356;2022-08-21T03:52:52;20.70;99.90
39983;DHT22;25670;44.782;10.356;2022-08-21T03:55:18;20.60;99.90
39983;DHT22;25670;44.782;10.356;2022-08-21T03:57:45;20.60;99.90
39983;DHT22;25670;44.782;10.356;2022-08-21T04:00:12;20.60;99.90
39983;DHT22;25670;44.782;10.356;2022-08-21T04:02:40;20.60;99.90
39983;DHT22;25670;44.782;10.356;2022-08-21T04:05:07;20.50;99.90
39983;DHT22;25670;44.782;10.356;2022-08-21T04:07:33;20.50;99.90
39983;DHT22;25670;44.782;10.356;2022-08-21T04:10:00;20.60;99.90
39983;DHT22;25670;44.782;10.356;2022-08-21T04:12:26;20.60;99.90
39983;DHT22;25670;44.782;10.356;2022-08-21T04:14:52;20.50;99.90
39983;DHT22;25670;44.782;10.356;2022-08-21T04:19:45;20.50;99.90
39983;DHT22;25670;44.782;10.356;2022-08-21T04:22:11;20.60;99.90
39983;DHT22;25670;44.782;10.356;2022-08-21T04:24:39;20.60;99.90
39983;DHT22;25670;44.782;10.356;2022-08-21T04:27:05;20.50;99.90
39983;DHT22;25670;44.782;10.356;2022-08-21T04:29:31;20.60;99.90
39983;DHT22;25670;44.782;10.356;2022-08-21T04:31:57;20.50;99.90
39983;DHT22;25670;44.782;10.356;2022-08-21T04:34:24;20.10;99.90
39983;DHT22;25670;44.782;10.356;2022-08-21T04:36:50;20.60;99.90
39983;DHT22;25670;44.782;10.356;2022-08-21T04:39:16;20.60;99.90
39983;DHT22;25670;44.782;10.356;2022-08-21T04:41:42;20.00;99.90
39983;DHT22;25670;44.782;10.356;2022-08-21T04:44:08;20.40;99.90
39983;DHT22;25670;44.782;10.356;2022-08-21T04:46:35;20.50;99.90
39983;DHT22;25670;44.782;10.356;2022-08-21T04:51:33;20.50;99.90
39983;DHT22;25670;44.782;10.356;2022-08-21T04:54:20;20.50;99.90
39983;DHT22;25670;44.782;10.356;2022-08-21T04:56:52;20.40;99.90
39983;DHT22;25670;44.782;10.356;2022-08-21T04:59:27;20.40;99.90
39983;DHT22;25670;44.782;10.356;2022-08-21T05:01:54;20.40;99.90
39983;DHT22;25670;44.782;10.356;2022-08-21T05:04:25;20.50;99.90
39983;DHT22;25670;44.782;10.356;2022-08-21T05:06:53;20.60;99.90
39983;DHT22;25670;44.782;10.356;2022-08-21T05:09:21;20.50;99.90
39983;DHT22;25670;44.782;10.356;2022-08-21T05:11:48;20.60;99.90
39983;DHT22;25670;44.782;10.356;2022-08-21T05:14:15;20.10;99.90
39983;DHT22;25670;44.782;10.356;2022-08-21T05:19:10;21.70;99.90
39983;DHT22;25670;44.782;10.356;2022-08-21T05:21:39;20.80;99.90
39983;DHT22;25670;44.782;10.356;2022-08-21T05:24:06;20.70;99.90
39983;DHT22;25670;44.782;10.356;2022-08-21T05:26:32;20.70;99.90
39983;DHT22;25670;44.782;10.356;2022-08-21T05:28:59;20.70;99.90
39983;DHT22;25670;44.782;10.356;2022-08-21T05:31:25;20.50;99.90
39983;DHT22;25670;44.782;10.356;2022-08-21T05:33:51;20.80;99.90
39983;DHT22;25670;44.782;10.356;2022-08-21T05:36:18;20.90;99.90
39983;DHT22;25670;44.782;10.356;2022-08-21T05:38:45;21.10;99.90
39983;DHT22;25670;44.782;10.356;2022-08-21T05:41:11;21.40;99.90
39983;DHT22;25670;44.782;10.356;2022-08-21T05:43:37;21.10;99.90
39983;DHT22;25670;44.782;10.356;2022-08-21T05:46:04;21.30;99.90
39983;DHT22;25670;44.782;10.356;2022-08-21T05:48:31;21.30;99.90
39983;DHT22;25670;44.782;10.356;2022-08-21T05:51:03;21.80;99.90
39983;DHT22;25670;44.782;10.356;2022-08-21T05:53:29;21.30;99.90
39983;DHT22;25670;44.782;10.356;2022-08-21T05:55:55;21.40;99.90
39983;DHT22;25670;44.782;10.356;2022-08-21T05:58:22;21.50;99.90
39983;DHT22;25670;44.782;10.356;2022-08-21T06:00:51;21.60;99.90
39983;DHT22;25670;44.782;10.356;2022-08-21T06:03:33;21.60;99.90
39983;DHT22;25670;44.782;10.356;2022-08-21T06:06:00;21.70;99.90
39983;DHT22;25670;44.782;10.356;2022-08-21T06:08:28;21.70;99.90
39983;DHT22;25670;44.782;10.356;2022-08-21T06:10:56;21.80;99.90
39983;DHT22;25670;44.782;10.356;2022-08-21T06:13:23;21.80;99.90
39983;DHT22;25670;44.782;10.356;2022-08-21T06:16:00;22.00;99.90
39983;DHT22;25670;44.782;10.356;2022-08-21T06:18:26;22.00;99.90
39983;DHT22;25670;44.782;10.356;2022-08-21T06:20:52;22.00;99.90
39983;DHT22;25670;44.782;10.356;2022-08-21T06:23:18;22.30;99.90
39983;DHT22;25670;44.782;10.356;2022-08-21T06:25:45;22.10;99.90
39983;DHT22;25670;44.782;10.356;2022-08-21T06:28:12;22.30;99.90
39983;DHT22;25670;44.782;10.356;2022-08-21T06:30:39;22.30;99.90
39983;DHT22;25670;44.782;10.356;2022-08-21T06:33:06;22.30;99.90
39983;DHT22;25670;44.782;10.356;2022-08-21T06:35:33;22.30;99.90
39983;DHT22;25670;44.782;10.356;2022-08-21T06:38:00;22.30;99.90
39983;DHT22;25670;44.782;10.356;2022-08-21T06:40:28;22.40;99.90
39983;DHT22;25670;44.782;10.356;2022-08-21T06:42:54;22.50;99.90
39983;DHT22;25670;44.782;10.356;2022-08-21T06:45:21;22.50;99.90
39983;DHT22;25670;44.782;10.356;2022-08-21T06:47:47;22.60;99.90
39983;DHT22;25670;44.782;10.356;2022-08-21T06:50:14;22.70;99.90
39983;DHT22;25670;44.782;10.356;2022-08-21T06:55:09;22.80;99.90
39983;DHT22;25670;44.782;10.356;2022-08-21T06:57:36;22.80;99.90
39983;DHT22;25670;44.782;10.356;2022-08-21T07:00:08;22.80;99.90
39983;DHT22;25670;44.782;10.356;2022-08-21T07:02:35;22.80;99.90
39983;DHT22;25670;44.782;10.356;2022-08-21T07:07:29;22.90;99.90
39983;DHT22;25670;44.782;10.356;2022-08-21T07:09:55;23.00;99.90
39983;DHT22;25670;44.782;10.356;2022-08-21T07:12:22;23.00;99.90
39983;DHT22;25670;44.782;10.356;2022-08-21T07:14:48;23.10;99.90
39983;DHT22;25670;44.782;10.356;2022-08-21T07:17:14;23.10;99.90
39983;DHT22;25670;44.782;10.356;2022-08-21T07:19:40;23.20;99.90
39983;DHT22;25670;44.782;10.356;2022-08-21T07:22:07;23.30;99.90
39983;DHT22;25670;44.782;10.356;2022-08-21T07:24:35;22.30;99.90
39983;DHT22;25670;44.782;10.356;2022-08-21T07:27:01;23.90;99.90
39983;DHT22;25670;44.782;10.356;2022-08-21T07:29:28;23.80;99.90
39983;DHT22;25670;44.782;10.356;2022-08-21T07:31:54;23.50;99.90
39983;DHT22;25670;44.782;10.356;2022-08-21T07:34:20;23.60;99.90
39983;DHT22;25670;44.782;10.356;2022-08-21T07:36:47;23.70;99.90
39983;DHT22;25670;44.782;10.356;2022-08-21T07:39:13;23.70;99.90
39983;DHT22;25670;44.782;10.356;2022-08-21T07:41:40;23.80;99.90
39983;DHT22;25670;44.782;10.356;2022-08-21T07:46:32;23.90;99.90
39983;DHT22;25670;44.782;10.356;2022-08-21T07:48:58;24.00;99.90
39983;DHT22;25670;44.782;10.356;2022-08-21T07:51:27;24.10;99.90
39983;DHT22;25670;44.782;10.356;2022-08-21T07:53:55;24.20;99.90
39983;DHT22;25670;44.782;10.356;2022-08-21T07:56:22;24.30;99.90
39983;DHT22;25670;44.782;10.356;2022-08-21T07:58:49;24.30;99.90
39983;DHT22;25670;44.782;10.356;2022-08-21T08:01:15;24.50;99.90
39983;DHT22;25670;44.782;10.356;2022-08-21T08:03:41;24.50;99.90
39983;DHT22;25670;44.782;10.356;2022-08-21T08:06:08;24.50;99.90
39983;DHT22;25670;44.782;10.356;2022-08-21T08:08:39;24.70;99.90
39983;DHT22;25670;44.782;10.356;2022-08-21T08:11:08;24.70;99.90
39983;DHT22;25670;44.782;10.356;2022-08-21T08:13:41;24.80;99.90
39983;DHT22;25670;44.782;10.356;2022-08-21T08:16:08;24.90;99.90
39983;DHT22;25670;44.782;10.356;2022-08-21T08:18:34;24.90;99.90
39983;DHT22;25670;44.782;10.356;2022-08-21T08:21:00;25.00;99.90
39983;DHT22;25670;44.782;10.356;2022-08-21T08:23:26;25.30;99.90
39983;DHT22;25670;44.782;10.356;2022-08-21T08:25:53;25.10;99.90
39983;DHT22;25670;44.782;10.356;2022-08-21T08:28:19;25.10;99.90
39983;DHT22;25670;44.782;10.356;2022-08-21T08:30:47;25.10;99.90
39983;DHT22;25670;44.782;10.356;2022-08-21T08:33:16;25.20;99.90
39983;DHT22;25670;44.782;10.356;2022-08-21T08:35:45;25.30;99.90
39983;DHT22;25670;44.782;10.356;2022-08-21T08:38:14;25.40;99.90
39983;DHT22;25670;44.782;10.356;2022-08-21T08:41:06;25.50;99.90
39983;DHT22;25670;44.782;10.356;2022-08-21T08:43:34;25.50;99.90
39983;DHT22;25670;44.782;10.356;2022-08-21T08:46:04;25.60;99.90
39983;DHT22;25670;44.782;10.356;2022-08-21T08:49:42;25.70;99.90
39983;DHT22;25670;44.782;10.356;2022-08-21T08:54:17;25.90;99.90
39983;DHT22;25670;44.782;10.356;2022-08-21T08:56:44;26.00;99.90
39983;DHT22;25670;44.782;10.356;2022-08-21T08:59:17;26.10;99.90
39983;DHT22;25670;44.782;10.356;2022-08-21T09:01:44;26.20;99.90
39983;DHT22;25670;44.782;10.356;2022-08-21T09:04:12;26.20;99.90
39983;DHT22;25670;44.782;10.356;2022-08-21T09:15:15;26.50;99.90
39983;DHT22;25670;44.782;10.356;2022-08-21T09:28:20;27.10;99.90
39983;DHT22;25670;44.782;10.356;2022-08-21T09:30:46;27.20;99.90
39983;DHT22;25670;44.782;10.356;2022-08-21T09:33:13;27.30;99.90
39983;DHT22;25670;44.782;10.356;2022-08-21T09:35:51;27.60;99.90
39983;DHT22;25670;44.782;10.356;2022-08-21T09:38:50;27.70;99.90
39983;DHT22;25670;44.782;10.356;2022-08-21T09:41:29;27.90;99.90
39983;DHT22;25670;44.782;10.356;2022-08-21T09:43:57;28.00;99.90
39983;DHT22;25670;44.782;10.356;2022-08-21T09:46:25;28.20;99.90
39983;DHT22;25670;44.782;10.356;2022-08-21T09:48:54;28.40;99.90
39983;DHT22;25670;44.782;10.356;2022-08-21T09:51:24;28.30;99.90
39983;DHT22;25670;44.782;10.356;2022-08-21T09:56:28;28.60;99.90
39983;DHT22;25670;44.782;10.356;2022-08-21T09:59:19;28.70;99.90
39983;DHT22;25670;44.782;10.356;2022-08-21T10:01:48;28.90;99.90
39983;DHT22;25670;44.782;10.356;2022-08-21T10:04:21;28.80;99.90
39983;DHT22;25670;44.782;10.356;2022-08-21T10:06:47;28.70;99.90
39983;DHT22;25670;44.782;10.356;2022-08-21T10:09:16;28.80;99.90
39983;DHT22;25670;44.782;10.356;2022-08-21T10:12:11;28.80;99.90
39983;DHT22;25670;44.782;10.356;2022-08-21T10:17:30;29.10;99.90
39983;DHT22;25670;44.782;10.356;2022-08-21T10:20:11;29.30;99.90
39983;DHT22;25670;44.782;10.356;2022-08-21T10:22:49;29.50;99.90
39983;DHT22;25670;44.782;10.356;2022-08-21T10:28:13;29.50;99.90
39983;DHT22;25670;44.782;10.356;2022-08-21T10:30:52;29.50;99.90
39983;DHT22;25670;44.782;10.356;2022-08-21T10:36:12;29.60;99.90
39983;DHT22;25670;44.782;10.356;2022-08-21T10:38:49;29.80;99.90
39983;DHT22;25670;44.782;10.356;2022-08-21T10:55:50;29.90;99.90
39983;DHT22;25670;44.782;10.356;2022-08-21T10:58:29;30.00;99.90
39983;DHT22;25670;44.782;10.356;2022-08-21T11:01:07;30.10;99.90
39983;DHT22;25670;44.782;10.356;2022-08-21T11:03:42;30.10;99.90
39983;DHT22;25670;44.782;10.356;2022-08-21T11:06:27;30.20;99.90
39983;DHT22;25670;44.782;10.356;2022-08-21T11:08:58;30.40;99.90
39983;DHT22;25670;44.782;10.356;2022-08-21T11:11:34;30.40;99.90
39983;DHT22;25670;44.782;10.356;2022-08-21T11:14:09;30.60;99.90
39983;DHT22;25670;44.782;10.356;2022-08-21T11:17:16;30.60;99.90
39983;DHT22;25670;44.782;10.356;2022-08-21T11:19:56;30.60;99.90
39983;DHT22;25670;44.782;10.356;2022-08-21T11:22:28;30.60;99.90
39983;DHT22;25670;44.782;10.356;2022-08-21T11:27:43;30.90;99.90
39983;DHT22;25670;44.782;10.356;2022-08-21T11:30:12;31.00;99.90
39983;DHT22;25670;44.782;10.356;2022-08-21T11:41:29;31.50;99.90
39983;DHT22;25670;44.782;10.356;2022-08-21T11:47:19;31.50;99.90
39983;DHT22;25670;44.782;10.356;2022-08-21T11:50:14;31.70;99.90
39983;DHT22;25670;44.782;10.356;2022-08-21T11:52:48;31.40;99.90
39983;DHT22;25670;44.782;10.356;2022-08-21T12:03:13;32.30;99.90
39983;DHT22;25670;44.782;10.356;2022-08-21T12:05:44;32.40;99.90
39983;DHT22;25670;44.782;10.356;2022-08-21T12:08:33;32.30;99.90
39983;DHT22;25670;44.782;10.356;2022-08-21T12:11:08;32.10;99.90
39983;DHT22;25670;44.782;10.356;2022-08-21T12:13:39;32.40;99.90
39983;DHT22;25670;44.782;10.356;2022-08-21T12:18:32;32.50;99.90
39983;DHT22;25670;44.782;10.356;2022-08-21T12:23:46;33.30;99.90
39983;DHT22;25670;44.782;10.356;2022-08-21T12:28:39;35.30;98.70
39983;DHT22;25670;44.782;10.356;2022-08-21T12:31:18;36.00;97.40
39983;DHT22;25670;44.782;10.356;2022-08-21T12:33:54;36.50;96.50
39983;DHT22;25670;44.782;10.356;2022-08-21T12:36:26;36.90;95.50
39983;DHT22;25670;44.782;10.356;2022-08-21T12:39:05;36.80;93.70
39983;DHT22;25670;44.782;10.356;2022-08-21T12:42:11;37.10;93.40
39983;DHT22;25670;44.782;10.356;2022-08-21T12:44:48;36.80;92.60
39983;DHT22;25670;44.782;10.356;2022-08-21T12:47:17;37.50;92.90
39983;DHT22;25670;44.782;10.356;2022-08-21T12:49:59;37.40;92.10
39983;DHT22;25670;44.782;10.356;2022-08-21T12:52:44;37.20;92.00
39983;DHT22;25670;44.782;10.356;2022-08-21T12:55:14;36.30;91.90
39983;DHT22;25670;44.782;10.356;2022-08-21T12:57:42;36.10;91.50
39983;DHT22;25670;44.782;10.356;2022-08-21T13:00:12;36.50;91.40
39983;DHT22;25670;44.782;10.356;2022-08-21T13:02:46;37.00;91.30
39983;DHT22;25670;44.782;10.356;2022-08-21T13:05:19;37.60;90.80
39983;DHT22;25670;44.782;10.356;2022-08-21T13:07:49;37.80;90.80
39983;DHT22;25670;44.782;10.356;2022-08-21T13:10:29;38.40;91.10
39983;DHT22;25670;44.782;10.356;2022-08-21T13:13:10;39.50;90.20
39983;DHT22;25670;44.782;10.356;2022-08-21T13:15:40;40.20;88.20
39983;DHT22;25670;44.782;10.356;2022-08-21T13:18:07;40.00;87.40
39983;DHT22;25670;44.782;10.356;2022-08-21T13:20:39;40.70;85.90
39983;DHT22;25670;44.782;10.356;2022-08-21T13:23:26;41.30;84.90
39983;DHT22;25670;44.782;10.356;2022-08-21T13:25:54;42.10;83.20
39983;DHT22;25670;44.782;10.356;2022-08-21T13:28:20;41.90;78.70
39983;DHT22;25670;44.782;10.356;2022-08-21T13:30:52;42.40;80.60
39983;DHT22;25670;44.782;10.356;2022-08-21T13:33:24;42.80;79.10
39983;DHT22;25670;44.782;10.356;2022-08-21T13:38:30;43.30;75.60
39983;DHT22;25670;44.782;10.356;2022-08-21T13:41:08;43.00;75.80
39983;DHT22;25670;44.782;10.356;2022-08-21T13:43:37;43.20;75.50
39983;DHT22;25670;44.782;10.356;2022-08-21T13:46:10;43.20;75.10
39983;DHT22;25670;44.782;10.356;2022-08-21T13:48:38;42.80;73.20
39983;DHT22;25670;44.782;10.356;2022-08-21T13:51:05;41.90;74.50
39983;DHT22;25670;44.782;10.356;2022-08-21T13:56:31;41.50;74.20
39983;DHT22;25670;44.782;10.356;2022-08-21T13:59:00;41.70;75.40
39983;DHT22;25670;44.782;10.356;2022-08-21T14:01:33;41.20;74.60
39983;DHT22;25670;44.782;10.356;2022-08-21T14:04:22;40.40;74.50
39983;DHT22;25670;44.782;10.356;2022-08-21T14:06:49;42.60;76.00
39983;DHT22;25670;44.782;10.356;2022-08-21T14:09:33;43.30;73.80
39983;DHT22;25670;44.782;10.356;2022-08-21T14:12:04;44.00;72.40
39983;DHT22;25670;44.782;10.356;2022-08-21T14:14:38;43.70;73.30
39983;DHT22;25670;44.782;10.356;2022-08-21T14:17:09;43.80;71.10
39983;DHT22;25670;44.782;10.356;2022-08-21T14:19:40;44.50;71.10
39983;DHT22;25670;44.782;10.356;2022-08-21T14:24:49;44.70;68.20
39983;DHT22;25670;44.782;10.356;2022-08-21T14:27:17;43.90;68.30
39983;DHT22;25670;44.782;10.356;2022-08-21T14:29:45;43.80;70.20
39983;DHT22;25670;44.782;10.356;2022-08-21T14:32:22;43.60;68.70
39983;DHT22;25670;44.782;10.356;2022-08-21T14:34:48;43.30;68.90
39983;DHT22;25670;44.782;10.356;2022-08-21T14:37:15;43.10;69.60
39983;DHT22;25670;44.782;10.356;2022-08-21T14:39:41;43.60;70.30
39983;DHT22;25670;44.782;10.356;2022-08-21T14:42:07;43.00;67.90
39983;DHT22;25670;44.782;10.356;2022-08-21T14:44:34;43.00;69.10
39983;DHT22;25670;44.782;10.356;2022-08-21T14:47:00;42.90;69.40
39983;DHT22;25670;44.782;10.356;2022-08-21T14:49:28;42.90;68.90
39983;DHT22;25670;44.782;10.356;2022-08-21T14:51:56;43.10;69.10
39983;DHT22;25670;44.782;10.356;2022-08-21T14:54:28;42.80;68.70
39983;DHT22;25670;44.782;10.356;2022-08-21T14:56:55;43.50;69.70
39983;DHT22;25670;44.782;10.356;2022-08-21T15:01:49;43.40;68.80
39983;DHT22;25670;44.782;10.356;2022-08-21T15:04:16;43.40;68.40
39983;DHT22;25670;44.782;10.356;2022-08-21T15:06:42;44.40;68.40
39983;DHT22;25670;44.782;10.356;2022-08-21T15:09:08;44.60;67.90
39983;DHT22;25670;44.782;10.356;2022-08-21T15:11:34;45.20;67.80
39983;DHT22;25670;44.782;10.356;2022-08-21T15:14:03;45.30;66.90
39983;DHT22;25670;44.782;10.356;2022-08-21T15:16:33;44.30;66.40
39983;DHT22;25670;44.782;10.356;2022-08-21T15:19:01;44.40;66.90
39983;DHT22;25670;44.782;10.356;2022-08-21T15:21:27;45.10;66.10
39983;DHT22;25670;44.782;10.356;2022-08-21T15:23:53;42.90;66.00
39983;DHT22;25670;44.782;10.356;2022-08-21T15:26:22;42.70;67.50
39983;DHT22;25670;44.782;10.356;2022-08-21T15:28:48;43.70;68.60
39983;DHT22;25670;44.782;10.356;2022-08-21T15:31:15;44.40;66.50
39983;DHT22;25670;44.782;10.356;2022-08-21T15:33:41;44.40;66.60
39983;DHT22;25670;44.782;10.356;2022-08-21T15:36:08;44.70;66.40
39983;DHT22;25670;44.782;10.356;2022-08-21T15:38:34;44.90;66.90
39983;DHT22;25670;44.782;10.356;2022-08-21T15:41:02;45.40;65.00
39983;DHT22;25670;44.782;10.356;2022-08-21T15:43:35;45.40;65.80
39983;DHT22;25670;44.782;10.356;2022-08-21T15:48:29;45.90;65.10
39983;DHT22;25670;44.782;10.356;2022-08-21T15:50:55;45.40;65.70
39983;DHT22;25670;44.782;10.356;2022-08-21T15:53:21;45.20;65.60
39983;DHT22;25670;44.782;10.356;2022-08-21T15:55:48;45.20;65.30
39983;DHT22;25670;44.782;10.356;2022-08-21T15:58:15;45.30;65.20
39983;DHT22;25670;44.782;10.356;2022-08-21T16:00:44;43.90;64.70
39983;DHT22;25670;44.782;10.356;2022-08-21T16:03:14;44.60;66.10
39983;DHT22;25670;44.782;10.356;2022-08-21T16:05:57;43.60;66.40
39983;DHT22;25670;44.782;10.356;2022-08-21T16:08:24;44.00;66.00
39983;DHT22;25670;44.782;10.356;2022-08-21T16:10:52;43.80;65.10
39983;DHT22;25670;44.782;10.356;2022-08-21T16:13:27;44.20;65.80
39983;DHT22;25670;44.782;10.356;2022-08-21T16:15:54;44.70;64.80
39983;DHT22;25670;44.782;10.356;2022-08-21T16:18:21;44.50;64.80
39983;DHT22;25670;44.782;10.356;2022-08-21T16:20:48;44.20;65.60
39983;DHT22;25670;44.782;10.356;2022-08-21T16:23:17;42.00;63.80
39983;DHT22;25670;44.782;10.356;2022-08-21T16:25:43;42.80;65.30
39983;DHT22;25670;44.782;10.356;2022-08-21T16:28:13;42.60;67.00
39983;DHT22;25670;44.782;10.356;2022-08-21T16:30:44;43.00;66.20
39983;DHT22;25670;44.782;10.356;2022-08-21T16:35:48;43.20;65.80
39983;DHT22;25670;44.782;10.356;2022-08-21T16:38:14;43.60;65.30
39983;DHT22;25670;44.782;10.356;2022-08-21T16:40:40;43.10;66.00
39983;DHT22;25670;44.782;10.356;2022-08-21T16:43:06;43.30;64.80
39983;DHT22;25670;44.782;10.356;2022-08-21T16:45:33;42.80;65.60
39983;DHT22;25670;44.782;10.356;2022-08-21T16:48:00;42.20;65.40
39983;DHT22;25670;44.782;10.356;2022-08-21T16:50:32;42.00;65.60
39983;DHT22;25670;44.782;10.356;2022-08-21T16:52:58;41.10;66.00
39983;DHT22;25670;44.782;10.356;2022-08-21T16:55:27;40.20;66.00
39983;DHT22;25670;44.782;10.356;2022-08-21T16:57:55;40.20;66.90
39983;DHT22;25670;44.782;10.356;2022-08-21T17:00:21;41.30;66.40
39983;DHT22;25670;44.782;10.356;2022-08-21T17:02:52;41.90;66.70
39983;DHT22;25670;44.782;10.356;2022-08-21T17:05:18;42.30;65.70
39983;DHT22;25670;44.782;10.356;2022-08-21T17:07:44;42.50;66.50
39983;DHT22;25670;44.782;10.356;2022-08-21T17:10:13;42.70;66.10
39983;DHT22;25670;44.782;10.356;2022-08-21T17:12:48;42.70;66.20
39983;DHT22;25670;44.782;10.356;2022-08-21T17:15:27;43.00;66.00
39983;DHT22;25670;44.782;10.356;2022-08-21T17:17:54;42.30;66.10